createdAt,value
2022-11-29T00:01:34.047Z,3.87
2022-11-29T00:04:01.420Z,3.98
2022-11-29T00:06:33.195Z,3.91
2022-11-29T00:09:02.974Z,4.02
2022-11-29T00:11:51.425Z,3.95
2022-11-29T00:14:19.639Z,3.93
2022-11-29T00:16:50.899Z,4.01
2022-11-29T00:19:17.980Z,4.04
2022-11-29T00:21:44.545Z,3.95
2022-11-29T00:24:11.045Z,4.02
2022-11-29T00:26:37.758Z,4.01
2022-11-29T00:29:04.636Z,4.01
2022-11-29T00:31:33.383Z,4.18
2022-11-29T00:34:02.822Z,4.15
2022-11-29T00:36:31.690Z,4.22
2022-11-29T00:38:58.569Z,4.03
2022-11-29T00:41:29.843Z,3.98
2022-11-29T00:43:56.380Z,4.03
2022-11-29T00:46:23.090Z,4.04
2022-11-29T00:48:49.533Z,4.02
2022-11-29T00:51:16.046Z,3.95
2022-11-29T00:53:44.736Z,3.97
2022-11-29T00:56:11.214Z,3.94
2022-11-29T00:58:37.758Z,3.94
2022-11-29T01:01:05.022Z,3.94
2022-11-29T01:03:34.732Z,3.88
2022-11-29T01:06:03.140Z,3.81
2022-11-29T01:08:29.578Z,3.93
2022-11-29T01:11:08.177Z,3.91
2022-11-29T01:13:37.420Z,3.88
2022-11-29T01:16:05.586Z,3.95
2022-11-29T01:18:32.671Z,3.91
2022-11-29T01:21:05.560Z,4.03
2022-11-29T01:23:32.385Z,3.96
2022-11-29T01:26:01.365Z,4.09
2022-11-29T01:28:28.415Z,4.07
2022-11-29T01:30:55.410Z,4.11
2022-11-29T01:33:24.661Z,4.03
2022-11-29T01:35:53.203Z,3.95
2022-11-29T01:38:22.845Z,4.03
2022-11-29T01:41:20.808Z,4.01
2022-11-29T01:43:59.801Z,4.03
2022-11-29T01:46:28.587Z,3.97
2022-11-29T01:49:06.100Z,3.92
2022-11-29T01:51:34.862Z,3.92
2022-11-29T01:54:01.966Z,3.94
2022-11-29T01:56:30.341Z,3.96
2022-11-29T01:58:57.066Z,4.15
2022-11-29T02:01:24.094Z,4.09
2022-11-29T02:03:50.567Z,4.02
2022-11-29T02:06:17.645Z,4.04
2022-11-29T02:08:44.537Z,4.00
2022-11-29T02:11:26.413Z,3.98
2022-11-29T02:13:55.840Z,4.00
2022-11-29T02:16:22.239Z,3.94
2022-11-29T02:19:22.611Z,4.01
2022-11-29T02:21:55.976Z,4.15
2022-11-29T02:24:44.033Z,4.27
2022-11-29T02:27:47.841Z,4.09
2022-11-29T02:30:40.368Z,4.13
2022-11-29T02:33:28.400Z,4.10
2022-11-29T02:36:06.986Z,4.03
2022-11-29T02:38:48.675Z,4.04
2022-11-29T02:41:24.123Z,4.05
2022-11-29T02:44:20.852Z,4.04
2022-11-29T02:47:02.920Z,3.90
2022-11-29T02:49:38.431Z,3.95
2022-11-29T02:52:11.809Z,3.85
2022-11-29T02:54:54.675Z,3.88
2022-11-29T02:57:48.305Z,3.96
2022-11-29T03:00:23.018Z,3.96
2022-11-29T03:02:53.499Z,4.03
2022-11-29T03:05:31.403Z,4.05
2022-11-29T03:08:12.000Z,4.14
2022-11-29T03:11:07.822Z,4.14
2022-11-29T03:14:06.749Z,4.05
2022-11-29T03:16:43.095Z,4.01
2022-11-29T03:19:10.138Z,4.01
2022-11-29T03:21:56.183Z,4.04
2022-11-29T03:24:31.930Z,4.11
2022-11-29T03:27:06.696Z,4.02
2022-11-29T03:29:39.909Z,4.11
2022-11-29T03:32:33.590Z,4.07
2022-11-29T03:35:14.945Z,4.13
2022-11-29T03:38:14.622Z,4.14
2022-11-29T03:40:59.780Z,4.22
2022-11-29T03:43:55.165Z,4.11
2022-11-29T03:46:25.749Z,4.06
2022-11-29T03:48:59.398Z,4.11
2022-11-29T03:51:28.929Z,4.09
2022-11-29T03:54:02.623Z,4.14
2022-11-29T03:56:29.187Z,4.05
2022-11-29T03:59:05.312Z,4.11
2022-11-29T04:01:50.510Z,4.17
2022-11-29T04:04:28.966Z,4.23
2022-11-29T04:07:04.476Z,4.10
2022-11-29T04:09:52.258Z,4.21
2022-11-29T04:12:46.650Z,4.13
2022-11-29T04:15:16.045Z,4.16
2022-11-29T04:17:56.930Z,4.14
2022-11-29T04:20:52.610Z,4.10
2022-11-29T04:23:28.047Z,4.10
2022-11-29T04:26:00.931Z,4.17
2022-11-29T04:28:39.468Z,4.29
2022-11-29T04:31:23.074Z,4.32
2022-11-29T04:34:04.708Z,4.29
2022-11-29T04:36:50.094Z,4.19
2022-11-29T04:39:31.706Z,4.25
2022-11-29T04:42:50.218Z,4.33
2022-11-29T04:45:38.318Z,4.28
2022-11-29T04:48:28.997Z,4.28
2022-11-29T04:51:23.321Z,4.28
2022-11-29T04:53:52.896Z,4.37
2022-11-29T04:56:31.572Z,4.23
2022-11-29T04:59:22.497Z,4.28
2022-11-29T05:02:07.914Z,4.25
2022-11-29T05:04:47.795Z,4.24
2022-11-29T05:07:23.540Z,4.30
2022-11-29T05:10:01.701Z,4.23
2022-11-29T05:12:28.177Z,4.31
2022-11-29T05:15:15.908Z,4.34
2022-11-29T05:17:58.242Z,4.31
2022-11-29T05:20:46.384Z,4.22
2022-11-29T05:23:23.174Z,4.24
2022-11-29T05:26:05.137Z,4.34
2022-11-29T05:29:10.597Z,4.23
2022-11-29T05:32:08.025Z,4.24
2022-11-29T05:34:49.087Z,4.21
2022-11-29T05:37:52.798Z,4.22
2022-11-29T05:41:07.434Z,4.33
2022-11-29T05:44:07.601Z,4.38
2022-11-29T05:46:39.847Z,4.34
2022-11-29T05:49:44.901Z,4.29
2022-11-29T05:52:14.432Z,4.24
2022-11-29T05:54:50.017Z,4.26
2022-11-29T05:57:22.537Z,4.31
2022-11-29T05:59:51.206Z,4.32
2022-11-29T06:02:26.938Z,4.11
2022-11-29T06:05:06.698Z,4.31
2022-11-29T06:07:48.402Z,4.25
2022-11-29T06:10:19.740Z,4.23
2022-11-29T06:13:03.331Z,4.20
2022-11-29T06:15:49.939Z,4.30
2022-11-29T06:18:32.257Z,4.31
2022-11-29T06:21:22.942Z,4.25
2022-11-29T06:24:20.439Z,4.35
2022-11-29T06:26:56.103Z,4.36
2022-11-29T06:29:35.131Z,4.34
2022-11-29T06:32:14.925Z,4.40
2022-11-29T06:34:49.045Z,4.41
2022-11-29T06:37:23.525Z,4.32
2022-11-29T06:39:50.454Z,4.31
2022-11-29T06:42:16.969Z,4.38
2022-11-29T06:44:44.086Z,4.43
2022-11-29T06:47:27.929Z,4.35
2022-11-29T06:50:04.172Z,4.30
2022-11-29T06:52:39.003Z,4.27
2022-11-29T06:55:14.445Z,4.26
2022-11-29T06:57:59.465Z,4.28
2022-11-29T07:00:31.828Z,4.38
2022-11-29T07:03:26.544Z,4.36
2022-11-29T07:05:53.405Z,4.46
2022-11-29T07:08:23.043Z,4.51
2022-11-29T07:10:53.274Z,4.41
2022-11-29T07:13:20.801Z,4.25
2022-11-29T07:16:11.626Z,4.42
2022-11-29T07:18:57.191Z,4.29
2022-11-29T07:21:33.856Z,4.29
2022-11-29T07:24:28.265Z,4.25
2022-11-29T07:27:15.625Z,4.29
2022-11-29T07:29:58.184Z,4.41
2022-11-29T07:33:00.455Z,4.35
2022-11-29T07:36:05.041Z,4.31
2022-11-29T07:38:49.866Z,4.36
2022-11-29T07:41:26.839Z,4.31
2022-11-29T07:44:11.478Z,4.41
2022-11-29T07:46:37.965Z,4.34
2022-11-29T07:49:05.537Z,4.30
2022-11-29T07:51:32.171Z,4.35
2022-11-29T07:53:58.604Z,4.51
2022-11-29T07:56:25.039Z,4.55
2022-11-29T07:58:51.517Z,4.48
2022-11-29T08:01:18.066Z,4.54
2022-11-29T08:03:44.648Z,4.65
2022-11-29T08:06:11.218Z,4.54
2022-11-29T08:08:43.554Z,4.60
2022-11-29T08:11:12.491Z,4.53
2022-11-29T08:13:38.897Z,4.55
2022-11-29T08:16:05.638Z,4.52
2022-11-29T08:18:32.167Z,4.61
2022-11-29T08:20:58.739Z,4.63
2022-11-29T08:23:25.222Z,4.64
2022-11-29T08:25:59.194Z,4.66
2022-11-29T08:28:25.681Z,4.66
2022-11-29T08:31:00.311Z,4.80
2022-11-29T08:33:26.973Z,4.70
2022-11-29T08:35:53.491Z,4.72
2022-11-29T08:38:19.978Z,4.65
2022-11-29T08:40:46.403Z,4.79
2022-11-29T08:43:12.844Z,4.84
2022-11-29T08:45:39.392Z,4.78
2022-11-29T08:48:06.322Z,4.82
2022-11-29T08:50:32.775Z,4.76
2022-11-29T08:53:17.954Z,4.80
2022-11-29T08:55:46.517Z,4.97
2022-11-29T08:58:17.890Z,5.00
2022-11-29T09:00:46.870Z,5.02
2022-11-29T09:03:32.097Z,4.97
2022-11-29T09:06:10.464Z,4.92
2022-11-29T09:08:39.546Z,4.92
2022-11-29T09:11:17.984Z,5.06
2022-11-29T09:13:47.221Z,5.14
2022-11-29T09:16:18.039Z,5.19
2022-11-29T09:18:51.901Z,5.12
2022-11-29T09:21:18.864Z,5.13
2022-11-29T09:23:46.117Z,5.19
2022-11-29T09:26:18.317Z,5.21
2022-11-29T09:28:47.354Z,5.17
2022-11-29T09:31:17.678Z,5.45
2022-11-29T09:33:45.569Z,5.41
2022-11-29T09:36:12.667Z,5.38
2022-11-29T09:38:39.330Z,5.36
2022-11-29T09:41:21.734Z,5.39
2022-11-29T09:44:17.193Z,5.55
2022-11-29T09:46:55.764Z,5.55
2022-11-29T09:49:42.924Z,5.44
2022-11-29T09:52:57.105Z,5.52
2022-11-29T09:55:26.209Z,5.58
2022-11-29T09:57:58.038Z,5.48
2022-11-29T10:00:26.001Z,5.62
2022-11-29T10:03:04.027Z,5.62
2022-11-29T10:05:46.923Z,5.68
2022-11-29T10:08:25.853Z,5.59
2022-11-29T10:10:58.601Z,5.76
2022-11-29T10:13:35.422Z,5.73
2022-11-29T10:16:13.244Z,5.75
2022-11-29T10:18:56.132Z,5.75
2022-11-29T10:21:29.086Z,5.73
2022-11-29T10:24:01.321Z,5.85
2022-11-29T10:26:33.550Z,5.76
2022-11-29T10:29:01.534Z,5.78
2022-11-29T10:31:32.513Z,5.78
2022-11-29T10:34:01.397Z,5.65
2022-11-29T10:36:40.733Z,5.72
2022-11-29T10:39:37.172Z,5.89
2022-11-29T10:42:06.504Z,5.93
2022-11-29T10:44:33.731Z,5.97
2022-11-29T10:47:07.835Z,6.01
2022-11-29T10:49:37.315Z,6.20
2022-11-29T10:52:03.765Z,6.11
2022-11-29T10:54:46.245Z,6.04
2022-11-29T10:57:17.285Z,6.12
2022-11-29T11:00:00.376Z,6.10
2022-11-29T11:02:27.767Z,6.00
2022-11-29T11:04:54.570Z,6.14
2022-11-29T11:07:29.400Z,6.10
2022-11-29T11:09:57.941Z,6.14
2022-11-29T11:12:29.992Z,6.35
2022-11-29T11:15:26.526Z,6.36
2022-11-29T11:18:20.189Z,6.47
2022-11-29T11:20:54.190Z,6.49
2022-11-29T11:23:30.349Z,6.44
2022-11-29T11:26:02.922Z,6.45
2022-11-29T11:28:34.695Z,6.55
2022-11-29T11:31:09.773Z,6.65
2022-11-29T11:33:48.688Z,6.68
2022-11-29T11:36:30.099Z,6.72
2022-11-29T11:39:13.301Z,6.64
2022-11-29T11:42:02.475Z,6.68
2022-11-29T11:44:52.007Z,6.69
2022-11-29T11:47:20.838Z,6.83
2022-11-29T11:49:53.458Z,6.69
2022-11-29T11:52:27.541Z,6.78
2022-11-29T11:54:57.924Z,6.99
2022-11-29T11:57:26.097Z,7.01
2022-11-29T11:59:54.500Z,7.09
2022-11-29T12:02:40.850Z,7.23
2022-11-29T12:05:18.825Z,7.26
2022-11-29T12:08:08.517Z,7.32
2022-11-29T12:10:40.351Z,7.30
2022-11-29T12:13:18.149Z,7.38
2022-11-29T12:15:49.636Z,7.31
2022-11-29T12:18:43.490Z,7.25
2022-11-29T12:21:14.339Z,7.26
2022-11-29T12:24:04.016Z,7.17
2022-11-29T12:26:57.151Z,7.15
2022-11-29T12:29:29.787Z,7.28
2022-11-29T12:32:25.393Z,7.32
2022-11-29T12:35:30.890Z,7.21
2022-11-29T12:38:19.576Z,7.16
2022-11-29T12:40:52.474Z,7.11
2022-11-29T12:43:34.136Z,7.13
2022-11-29T12:46:10.000Z,7.18
2022-11-29T12:48:54.294Z,7.19
2022-11-29T12:51:29.882Z,7.11
2022-11-29T12:54:27.493Z,7.11
2022-11-29T12:57:09.273Z,7.06
2022-11-29T13:00:03.620Z,7.11
2022-11-29T13:02:39.546Z,7.01
2022-11-29T13:05:16.573Z,6.99
2022-11-29T13:07:49.037Z,6.84
2022-11-29T13:10:34.469Z,6.84
2022-11-29T13:13:33.257Z,6.92
2022-11-29T13:16:30.847Z,6.77
2022-11-29T13:19:17.319Z,6.57
2022-11-29T13:21:46.891Z,6.74
2022-11-29T13:24:47.423Z,6.71
2022-11-29T13:27:23.467Z,6.70
2022-11-29T13:29:53.562Z,6.64
2022-11-29T13:32:45.759Z,6.56
2022-11-29T13:35:26.416Z,6.64
2022-11-29T13:37:58.930Z,6.68
2022-11-29T13:40:37.412Z,6.55
2022-11-29T13:43:39.573Z,6.52
2022-11-29T13:46:37.284Z,6.58
2022-11-29T13:49:03.826Z,6.48
2022-11-29T13:51:37.325Z,6.53
2022-11-29T13:54:27.903Z,6.42
2022-11-29T13:57:09.085Z,6.49
2022-11-29T13:59:45.878Z,6.38
2022-11-29T14:02:43.403Z,6.43
2022-11-29T14:05:26.148Z,6.36
2022-11-29T14:08:48.158Z,6.41
2022-11-29T14:11:26.884Z,6.31
2022-11-29T14:14:24.370Z,6.36
2022-11-29T14:16:54.579Z,6.34
2022-11-29T14:19:28.857Z,6.28
2022-11-29T14:22:09.987Z,6.13
2022-11-29T14:24:36.518Z,6.12
2022-11-29T14:27:06.079Z,6.17
2022-11-29T14:29:50.871Z,6.11
2022-11-29T14:32:24.593Z,6.18
2022-11-29T14:34:55.188Z,6.04
2022-11-29T14:37:34.082Z,6.04
2022-11-29T14:40:11.355Z,6.14
2022-11-29T14:42:46.851Z,6.08
2022-11-29T14:45:32.120Z,6.04
2022-11-29T14:47:59.303Z,5.85
2022-11-29T14:50:38.802Z,5.91
2022-11-29T14:53:07.368Z,5.87
2022-11-29T14:55:37.235Z,5.79
2022-11-29T14:58:18.834Z,5.83
2022-11-29T15:00:48.303Z,5.66
2022-11-29T15:03:24.793Z,5.81
2022-11-29T15:05:55.554Z,5.84
2022-11-29T15:08:37.382Z,5.78
2022-11-29T15:11:35.303Z,5.62
2022-11-29T15:14:25.029Z,5.60
2022-11-29T15:16:57.570Z,5.56
2022-11-29T15:19:57.743Z,5.54
2022-11-29T15:22:32.822Z,5.64
2022-11-29T15:25:12.298Z,5.53
2022-11-29T15:27:52.494Z,5.48
2022-11-29T15:30:33.248Z,5.25
2022-11-29T15:33:01.839Z,5.29
2022-11-29T15:35:31.088Z,5.22
2022-11-29T15:37:57.655Z,5.16
2022-11-29T15:40:34.846Z,5.09
2022-11-29T15:43:13.640Z,5.09
2022-11-29T15:45:40.251Z,5.04
2022-11-29T15:48:31.786Z,5.07
2022-11-29T15:51:24.471Z,5.03
2022-11-29T15:54:13.196Z,5.02
2022-11-29T15:57:00.461Z,5.00
2022-11-29T15:59:51.458Z,4.91
2022-11-29T16:02:26.316Z,4.94
2022-11-29T16:04:56.952Z,4.96
2022-11-29T16:07:25.895Z,4.85
2022-11-29T16:10:01.800Z,4.77
2022-11-29T16:12:28.331Z,4.64
2022-11-29T16:14:56.488Z,4.55
2022-11-29T16:17:34.250Z,4.61
2022-11-29T16:20:19.314Z,4.63
2022-11-29T16:22:45.881Z,4.55
2022-11-29T16:25:17.897Z,4.56
2022-11-29T16:27:45.476Z,4.42
2022-11-29T16:30:23.742Z,4.56
2022-11-29T16:32:57.948Z,4.52
2022-11-29T16:35:27.487Z,4.51
2022-11-29T16:37:54.617Z,4.50
2022-11-29T16:40:31.481Z,4.39
2022-11-29T16:43:03.840Z,4.42
2022-11-29T16:45:34.616Z,4.41
2022-11-29T16:48:02.727Z,4.37
2022-11-29T16:50:31.316Z,4.36
2022-11-29T16:53:37.017Z,4.38
2022-11-29T16:56:05.545Z,4.30
2022-11-29T16:58:34.654Z,4.40
2022-11-29T17:01:31.382Z,4.40
2022-11-29T17:04:01.352Z,4.47
2022-11-29T17:06:29.529Z,4.46
2022-11-29T17:08:58.714Z,4.43
2022-11-29T17:11:25.770Z,4.46
2022-11-29T17:13:52.206Z,4.61
2022-11-29T17:16:23.485Z,4.57
2022-11-29T17:18:52.687Z,4.44
2022-11-29T17:21:24.424Z,4.37
2022-11-29T17:23:52.336Z,4.28
2022-11-29T17:26:19.527Z,4.21
2022-11-29T17:28:47.651Z,4.18
2022-11-29T17:31:17.176Z,4.10
2022-11-29T17:33:43.760Z,4.05
2022-11-29T17:36:12.756Z,4.00
2022-11-29T17:38:39.288Z,4.11
2022-11-29T17:41:10.575Z,4.02
2022-11-29T17:43:37.399Z,4.04
2022-11-29T17:46:23.875Z,4.00
2022-11-29T17:48:52.178Z,4.02
2022-11-29T17:51:50.506Z,4.00
2022-11-29T17:54:08.641Z,4.00
2022-11-29T17:56:35.303Z,3.90
2022-11-29T17:59:03.708Z,3.94
2022-11-29T18:01:33.245Z,4.11
2022-11-29T18:04:02.155Z,4.03
2022-11-29T18:06:34.920Z,3.98
2022-11-29T18:09:03.552Z,4.22
2022-11-29T18:11:46.913Z,4.23
2022-11-29T18:14:16.817Z,4.28
2022-11-29T18:16:45.519Z,4.31
2022-11-29T18:19:14.977Z,4.26
2022-11-29T18:21:41.802Z,4.43
2022-11-29T18:24:09.191Z,4.42
2022-11-29T18:26:37.113Z,4.37
2022-11-29T18:29:05.381Z,4.18
2022-11-29T18:31:34.659Z,4.12
2022-11-29T18:34:02.993Z,4.05
2022-11-29T18:36:32.786Z,4.13
2022-11-29T18:39:00.390Z,4.13
2022-11-29T18:41:30.933Z,4.10
2022-11-29T18:44:06.377Z,4.04
2022-11-29T18:46:35.736Z,4.13
2022-11-29T18:49:04.906Z,4.11
2022-11-29T18:51:32.095Z,4.14
2022-11-29T18:53:59.193Z,4.18
2022-11-29T18:56:29.128Z,4.05
2022-11-29T18:59:03.162Z,4.03
2022-11-29T19:01:32.589Z,4.19
2022-11-29T19:04:00.830Z,4.29
2022-11-29T19:06:38.570Z,4.48
2022-11-29T19:09:07.409Z,4.33
2022-11-29T19:11:34.591Z,4.30
2022-11-29T19:14:04.242Z,4.29
2022-11-29T19:16:33.483Z,4.23
2022-11-29T19:19:01.093Z,4.14
2022-11-29T19:21:31.794Z,4.04
2022-11-29T19:24:00.822Z,4.05
2022-11-29T19:26:29.384Z,4.02
2022-11-29T19:28:56.334Z,4.13
2022-11-29T19:31:27.338Z,4.05
2022-11-29T19:33:57.233Z,4.06
2022-11-29T19:36:26.728Z,4.01
2022-11-29T19:38:55.789Z,4.04
2022-11-29T19:41:29.647Z,4.05
2022-11-29T19:44:00.089Z,4.02
2022-11-29T19:46:32.252Z,4.04
2022-11-29T19:49:00.008Z,4.03
2022-11-29T19:51:29.241Z,3.93
2022-11-29T19:54:00.064Z,3.86
2022-11-29T19:56:27.787Z,3.90
2022-11-29T19:58:55.281Z,3.86
2022-11-29T20:01:28.003Z,4.16
2022-11-29T20:03:58.708Z,4.30
2022-11-29T20:06:29.806Z,4.37
2022-11-29T20:08:57.247Z,4.29
2022-11-29T20:11:25.279Z,4.43
2022-11-29T20:13:55.532Z,4.38
2022-11-29T20:16:23.248Z,4.45
2022-11-29T20:18:53.021Z,4.41
2022-11-29T20:21:31.383Z,4.25
2022-11-29T20:24:00.215Z,4.25
2022-11-29T20:26:28.060Z,4.16
2022-11-29T20:28:54.869Z,4.11
2022-11-29T20:31:23.169Z,4.22
2022-11-29T20:33:52.110Z,4.18
2022-11-29T20:36:49.605Z,4.11
2022-11-29T20:39:25.147Z,4.21
2022-11-29T20:42:00.482Z,4.20
2022-11-29T20:44:48.560Z,4.15
2022-11-29T20:47:20.932Z,4.10
2022-11-29T20:49:48.445Z,4.16
2022-11-29T20:52:47.498Z,4.33
2022-11-29T20:55:14.130Z,4.37
2022-11-29T20:57:40.804Z,4.45
2022-11-29T21:00:12.116Z,4.39
2022-11-29T21:02:39.158Z,4.48
2022-11-29T21:05:06.862Z,4.44
2022-11-29T21:07:33.584Z,4.54
2022-11-29T21:10:04.157Z,4.58
2022-11-29T21:12:31.623Z,4.61
2022-11-29T21:14:58.597Z,4.68
2022-11-29T21:17:30.202Z,4.65
2022-11-29T21:20:00.305Z,4.47
2022-11-29T21:22:37.159Z,4.52
2022-11-29T21:25:25.358Z,4.60
2022-11-29T21:27:54.672Z,4.63
2022-11-29T21:30:23.917Z,4.69
2022-11-29T21:32:53.208Z,4.64
2022-11-29T21:35:19.932Z,4.61
2022-11-29T21:37:46.900Z,4.59
2022-11-29T21:40:14.573Z,4.53
2022-11-29T21:42:41.197Z,4.49
2022-11-29T21:45:15.366Z,4.53
2022-11-29T21:47:43.953Z,4.52
2022-11-29T21:50:11.805Z,4.49
2022-11-29T21:52:38.396Z,4.40
2022-11-29T21:55:05.670Z,4.49
2022-11-29T21:57:32.207Z,4.47
2022-11-29T21:59:58.791Z,4.53
2022-11-29T22:02:27.928Z,4.48
2022-11-29T22:04:54.522Z,4.45
2022-11-29T22:07:21.123Z,4.45
2022-11-29T22:09:47.734Z,4.46
2022-11-29T22:12:33.266Z,4.43
2022-11-29T22:15:00.823Z,4.41
2022-11-29T22:17:27.386Z,4.44
2022-11-29T22:19:54.082Z,4.44
2022-11-29T22:22:20.747Z,4.37
2022-11-29T22:24:49.832Z,4.42
2022-11-29T22:27:18.381Z,4.40
2022-11-29T22:29:45.211Z,4.36
2022-11-29T22:32:11.747Z,4.39
2022-11-29T22:34:38.314Z,4.29
2022-11-29T22:37:04.877Z,4.41
2022-11-29T22:39:31.466Z,4.31
2022-11-29T22:42:00.265Z,4.32
2022-11-29T22:44:26.848Z,4.44
2022-11-29T22:46:53.486Z,4.32
2022-11-29T22:49:20.078Z,4.41
2022-11-29T22:51:46.636Z,4.37
2022-11-29T22:54:16.599Z,4.44
2022-11-29T22:56:47.029Z,4.53
2022-11-29T22:59:16.527Z,4.40
2022-11-29T23:01:43.232Z,4.40
2022-11-29T23:04:12.164Z,4.41
2022-11-29T23:06:43.745Z,4.37
2022-11-29T23:09:16.571Z,4.33
2022-11-29T23:11:44.941Z,4.49
2022-11-29T23:14:12.031Z,4.39
2022-11-29T23:16:41.477Z,4.49
2022-11-29T23:19:08.805Z,4.42
2022-11-29T23:21:38.019Z,4.50
2022-11-29T23:24:05.192Z,4.56
2022-11-29T23:26:37.523Z,4.56
2022-11-29T23:29:05.306Z,4.58
2022-11-29T23:31:31.987Z,4.50
2022-11-29T23:33:58.721Z,4.51
2022-11-29T23:36:25.564Z,4.51
2022-11-29T23:38:52.274Z,4.62
2022-11-29T23:41:18.880Z,4.48
2022-11-29T23:43:47.753Z,4.51
2022-11-29T23:46:19.058Z,4.51
2022-11-29T23:48:48.440Z,4.38
2022-11-29T23:51:15.713Z,4.43
2022-11-29T23:53:44.682Z,4.52
2022-11-29T23:56:14.553Z,4.47
2022-11-29T23:58:42.361Z,4.51
